sensor_id;sensor_type;location;lat;lon;timestamp;P1;durP1;ratioP1;P2;durP2;ratioP2
68144;SDS011;55400;51.824;-0.196;2023-03-04T00:03:56;12.10;;;2.60;;
68144;SDS011;55400;51.824;-0.196;2023-03-04T00:07:56;12.70;;;2.90;;
68144;SDS011;55400;51.824;-0.196;2023-03-04T00:11:56;6.60;;;2.30;;
68144;SDS011;55400;51.824;-0.196;2023-03-04T00:19:56;11.80;;;2.30;;
68144;SDS011;55400;51.824;-0.196;2023-03-04T00:23:56;9.30;;;2.30;;
68144;SDS011;55400;51.824;-0.196;2023-03-04T00:27:56;10.00;;;2.20;;
68144;SDS011;55400;51.824;-0.196;2023-03-04T00:31:56;7.60;;;1.90;;
68144;SDS011;55400;51.824;-0.196;2023-03-04T00:35:56;10.20;;;2.60;;
68144;SDS011;55400;51.824;-0.196;2023-03-04T00:39:56;10.10;;;2.40;;
68144;SDS011;55400;51.824;-0.196;2023-03-04T00:47:56;8.90;;;2.20;;
68144;SDS011;55400;51.824;-0.196;2023-03-04T01:03:56;11.50;;;2.20;;
68144;SDS011;55400;51.824;-0.196;2023-03-04T01:11:56;8.10;;;2.50;;
68144;SDS011;55400;51.824;-0.196;2023-03-04T01:15:56;9.60;;;2.70;;
68144;SDS011;55400;51.824;-0.196;2023-03-04T01:31:56;9.20;;;2.60;;
68144;SDS011;55400;51.824;-0.196;2023-03-04T01:35:56;10.50;;;2.20;;
68144;SDS011;55400;51.824;-0.196;2023-03-04T01:39:56;10.30;;;2.20;;
68144;SDS011;55400;51.824;-0.196;2023-03-04T01:43:58;11.10;;;2.80;;
68144;SDS011;55400;51.824;-0.196;2023-03-04T01:47:56;8.10;;;2.70;;
68144;SDS011;55400;51.824;-0.196;2023-03-04T01:51:56;11.10;;;2.80;;
68144;SDS011;55400;51.824;-0.196;2023-03-04T01:56:01;8.60;;;2.50;;
68144;SDS011;55400;51.824;-0.196;2023-03-04T02:00:10;9.50;;;2.50;;
68144;SDS011;55400;51.824;-0.196;2023-03-04T02:07:57;8.50;;;2.10;;
68144;SDS011;55400;51.824;-0.196;2023-03-04T02:15:56;10.90;;;2.50;;
68144;SDS011;55400;51.824;-0.196;2023-03-04T02:20:02;8.90;;;2.50;;
68144;SDS011;55400;51.824;-0.196;2023-03-04T02:24:01;11.80;;;2.40;;
68144;SDS011;55400;51.824;-0.196;2023-03-04T02:27:56;12.80;;;3.00;;
68144;SDS011;55400;51.824;-0.196;2023-03-04T02:43:56;8.00;;;2.20;;
68144;SDS011;55400;51.824;-0.196;2023-03-04T02:47:56;11.70;;;2.60;;
68144;SDS011;55400;51.824;-0.196;2023-03-04T02:55:56;10.00;;;2.60;;
68144;SDS011;55400;51.824;-0.196;2023-03-04T02:59:56;8.40;;;2.50;;
68144;SDS011;55400;51.824;-0.196;2023-03-04T03:07:57;12.60;;;2.70;;
68144;SDS011;55400;51.824;-0.196;2023-03-04T03:15:56;11.80;;;2.90;;
68144;SDS011;55400;51.824;-0.196;2023-03-04T03:19:56;11.40;;;2.90;;
68144;SDS011;55400;51.824;-0.196;2023-03-04T03:27:57;7.50;;;2.50;;
68144;SDS011;55400;51.824;-0.196;2023-03-04T03:31:56;9.70;;;2.50;;
68144;SDS011;55400;51.824;-0.196;2023-03-04T03:35:57;9.40;;;2.40;;
68144;SDS011;55400;51.824;-0.196;2023-03-04T03:39:56;10.40;;;2.20;;
68144;SDS011;55400;51.824;-0.196;2023-03-04T03:43:56;8.40;;;2.40;;
68144;SDS011;55400;51.824;-0.196;2023-03-04T03:51:57;11.40;;;2.60;;
68144;SDS011;55400;51.824;-0.196;2023-03-04T03:55:56;11.40;;;3.00;;
68144;SDS011;55400;51.824;-0.196;2023-03-04T03:59:57;8.00;;;2.30;;
68144;SDS011;55400;51.824;-0.196;2023-03-04T04:03:56;8.00;;;2.60;;
68144;SDS011;55400;51.824;-0.196;2023-03-04T04:07:57;14.90;;;2.60;;
68144;SDS011;55400;51.824;-0.196;2023-03-04T04:11:56;15.10;;;3.00;;
68144;SDS011;55400;51.824;-0.196;2023-03-04T04:19:57;10.80;;;3.00;;
68144;SDS011;55400;51.824;-0.196;2023-03-04T04:23:57;13.90;;;2.90;;
68144;SDS011;55400;51.824;-0.196;2023-03-04T04:35:57;11.70;;;2.60;;
68144;SDS011;55400;51.824;-0.196;2023-03-04T04:43:57;9.30;;;2.70;;
68144;SDS011;55400;51.824;-0.196;2023-03-04T04:47:57;12.50;;;2.80;;
68144;SDS011;55400;51.824;-0.196;2023-03-04T04:51:57;7.50;;;2.40;;
68144;SDS011;55400;51.824;-0.196;2023-03-04T04:55:57;7.20;;;2.20;;
68144;SDS011;55400;51.824;-0.196;2023-03-04T05:03:57;8.70;;;2.40;;
68144;SDS011;55400;51.824;-0.196;2023-03-04T05:07:57;14.50;;;2.80;;
68144;SDS011;55400;51.824;-0.196;2023-03-04T05:11:57;6.90;;;2.00;;
68144;SDS011;55400;51.824;-0.196;2023-03-04T05:15:57;8.40;;;2.50;;
68144;SDS011;55400;51.824;-0.196;2023-03-04T05:19:57;6.70;;;2.40;;
68144;SDS011;55400;51.824;-0.196;2023-03-04T05:23:57;7.90;;;2.10;;
68144;SDS011;55400;51.824;-0.196;2023-03-04T05:27:57;5.70;;;2.00;;
68144;SDS011;55400;51.824;-0.196;2023-03-04T05:31:57;9.00;;;2.30;;
68144;SDS011;55400;51.824;-0.196;2023-03-04T05:35:57;7.10;;;2.20;;
68144;SDS011;55400;51.824;-0.196;2023-03-04T05:43:57;9.50;;;2.30;;
68144;SDS011;55400;51.824;-0.196;2023-03-04T05:47:57;9.90;;;2.50;;
68144;SDS011;55400;51.824;-0.196;2023-03-04T05:51:57;6.80;;;2.10;;
68144;SDS011;55400;51.824;-0.196;2023-03-04T05:55:57;9.50;;;2.30;;
68144;SDS011;55400;51.824;-0.196;2023-03-04T05:59:57;7.30;;;2.30;;
68144;SDS011;55400;51.824;-0.196;2023-03-04T06:03:57;5.70;;;2.20;;
68144;SDS011;55400;51.824;-0.196;2023-03-04T06:07:57;5.70;;;2.10;;
68144;SDS011;55400;51.824;-0.196;2023-03-04T06:11:57;6.30;;;2.30;;
68144;SDS011;55400;51.824;-0.196;2023-03-04T06:19:57;8.60;;;2.20;;
68144;SDS011;55400;51.824;-0.196;2023-03-04T06:23:57;7.30;;;2.30;;
68144;SDS011;55400;51.824;-0.196;2023-03-04T06:31:57;10.50;;;2.60;;
68144;SDS011;55400;51.824;-0.196;2023-03-04T06:35:57;10.70;;;2.50;;
68144;SDS011;55400;51.824;-0.196;2023-03-04T06:39:57;6.90;;;2.20;;
68144;SDS011;55400;51.824;-0.196;2023-03-04T06:43:57;7.50;;;2.20;;
68144;SDS011;55400;51.824;-0.196;2023-03-04T06:47:57;12.50;;;2.80;;
68144;SDS011;55400;51.824;-0.196;2023-03-04T06:51:57;10.50;;;2.20;;
68144;SDS011;55400;51.824;-0.196;2023-03-04T06:55:57;11.20;;;2.50;;
68144;SDS011;55400;51.824;-0.196;2023-03-04T07:03:57;6.20;;;2.20;;
68144;SDS011;55400;51.824;-0.196;2023-03-04T07:07:57;8.80;;;2.40;;
68144;SDS011;55400;51.824;-0.196;2023-03-04T07:11:57;12.90;;;2.40;;
68144;SDS011;55400;51.824;-0.196;2023-03-04T07:15:58;8.50;;;2.80;;
68144;SDS011;55400;51.824;-0.196;2023-03-04T07:19:57;8.80;;;2.30;;
68144;SDS011;55400;51.824;-0.196;2023-03-04T07:35:57;4.50;;;2.00;;
68144;SDS011;55400;51.824;-0.196;2023-03-04T07:39:57;9.20;;;2.20;;
68144;SDS011;55400;51.824;-0.196;2023-03-04T07:43:58;6.00;;;2.00;;
68144;SDS011;55400;51.824;-0.196;2023-03-04T07:47:57;8.80;;;2.30;;
68144;SDS011;55400;51.824;-0.196;2023-03-04T07:51:57;9.30;;;2.60;;
68144;SDS011;55400;51.824;-0.196;2023-03-04T07:55:57;8.20;;;3.00;;
68144;SDS011;55400;51.824;-0.196;2023-03-04T08:03:58;8.10;;;2.50;;
68144;SDS011;55400;51.824;-0.196;2023-03-04T08:07:57;6.10;;;2.10;;
68144;SDS011;55400;51.824;-0.196;2023-03-04T08:11:57;6.80;;;2.20;;
68144;SDS011;55400;51.824;-0.196;2023-03-04T08:15:57;7.40;;;2.20;;
68144;SDS011;55400;51.824;-0.196;2023-03-04T08:19:57;8.90;;;2.50;;
68144;SDS011;55400;51.824;-0.196;2023-03-04T08:27:57;8.70;;;2.50;;
68144;SDS011;55400;51.824;-0.196;2023-03-04T08:31:57;10.60;;;3.10;;
68144;SDS011;55400;51.824;-0.196;2023-03-04T08:35:57;11.80;;;2.80;;
68144;SDS011;55400;51.824;-0.196;2023-03-04T08:39:57;9.40;;;2.60;;
68144;SDS011;55400;51.824;-0.196;2023-03-04T08:43:58;6.20;;;2.60;;
68144;SDS011;55400;51.824;-0.196;2023-03-04T08:47:57;6.40;;;2.70;;
68144;SDS011;55400;51.824;-0.196;2023-03-04T08:51:57;5.80;;;2.60;;
68144;SDS011;55400;51.824;-0.196;2023-03-04T08:55:57;12.20;;;2.70;;
68144;SDS011;55400;51.824;-0.196;2023-03-04T08:59:57;9.80;;;2.90;;
68144;SDS011;55400;51.824;-0.196;2023-03-04T09:03:57;6.90;;;2.50;;
68144;SDS011;55400;51.824;-0.196;2023-03-04T09:07:58;7.20;;;2.80;;
68144;SDS011;55400;51.824;-0.196;2023-03-04T09:11:57;8.80;;;2.80;;
68144;SDS011;55400;51.824;-0.196;2023-03-04T09:15:58;7.60;;;3.10;;
68144;SDS011;55400;51.824;-0.196;2023-03-04T09:19:57;15.00;;;3.10;;
68144;SDS011;55400;51.824;-0.196;2023-03-04T09:23:57;8.60;;;3.10;;
68144;SDS011;55400;51.824;-0.196;2023-03-04T09:27:57;10.20;;;3.30;;
68144;SDS011;55400;51.824;-0.196;2023-03-04T09:31:58;12.90;;;3.30;;
68144;SDS011;55400;51.824;-0.196;2023-03-04T09:35:57;6.80;;;3.00;;
68144;SDS011;55400;51.824;-0.196;2023-03-04T09:39:58;5.40;;;2.60;;
68144;SDS011;55400;51.824;-0.196;2023-03-04T09:43:58;9.90;;;3.00;;
68144;SDS011;55400;51.824;-0.196;2023-03-04T09:47:58;9.80;;;3.00;;
68144;SDS011;55400;51.824;-0.196;2023-03-04T09:52:02;6.10;;;2.60;;
68144;SDS011;55400;51.824;-0.196;2023-03-04T09:55:58;7.90;;;3.00;;
68144;SDS011;55400;51.824;-0.196;2023-03-04T10:00:06;8.70;;;3.00;;
68144;SDS011;55400;51.824;-0.196;2023-03-04T10:08:00;9.30;;;3.00;;
68144;SDS011;55400;51.824;-0.196;2023-03-04T10:12:00;13.50;;;4.40;;
68144;SDS011;55400;51.824;-0.196;2023-03-04T10:16:00;10.70;;;3.60;;
68144;SDS011;55400;51.824;-0.196;2023-03-04T10:20:01;10.30;;;3.60;;
68144;SDS011;55400;51.824;-0.196;2023-03-04T10:24:00;7.40;;;2.90;;
68144;SDS011;55400;51.824;-0.196;2023-03-04T10:27:59;6.30;;;2.40;;
68144;SDS011;55400;51.824;-0.196;2023-03-04T10:36:00;7.60;;;3.10;;
68144;SDS011;55400;51.824;-0.196;2023-03-04T10:40:00;9.30;;;3.00;;
68144;SDS011;55400;51.824;-0.196;2023-03-04T10:44:01;9.60;;;3.30;;
68144;SDS011;55400;51.824;-0.196;2023-03-04T10:47:58;5.90;;;2.90;;
68144;SDS011;55400;51.824;-0.196;2023-03-04T10:52:03;6.20;;;2.40;;
68144;SDS011;55400;51.824;-0.196;2023-03-04T10:55:58;8.30;;;3.10;;
68144;SDS011;55400;51.824;-0.196;2023-03-04T10:59:59;9.50;;;2.90;;
68144;SDS011;55400;51.824;-0.196;2023-03-04T11:07:59;5.90;;;2.70;;
68144;SDS011;55400;51.824;-0.196;2023-03-04T11:11:59;7.20;;;2.40;;
68144;SDS011;55400;51.824;-0.196;2023-03-04T11:16:00;3.30;;;2.00;;
68144;SDS011;55400;51.824;-0.196;2023-03-04T11:24:00;7.60;;;2.30;;
68144;SDS011;55400;51.824;-0.196;2023-03-04T11:28:01;7.10;;;2.60;;
68144;SDS011;55400;51.824;-0.196;2023-03-04T11:36:07;5.20;;;2.60;;
68144;SDS011;55400;51.824;-0.196;2023-03-04T11:40:03;5.20;;;2.60;;
68144;SDS011;55400;51.824;-0.196;2023-03-04T11:43:59;10.00;;;3.80;;
68144;SDS011;55400;51.824;-0.196;2023-03-04T11:48:05;6.10;;;2.80;;
68144;SDS011;55400;51.824;-0.196;2023-03-04T11:52:06;6.60;;;2.20;;
68144;SDS011;55400;51.824;-0.196;2023-03-04T11:56:10;12.80;;;2.60;;
68144;SDS011;55400;51.824;-0.196;2023-03-04T12:00:06;12.80;;;2.60;;
68144;SDS011;55400;51.824;-0.196;2023-03-04T12:04:06;5.80;;;2.30;;
68144;SDS011;55400;51.824;-0.196;2023-03-04T12:08:09;7.30;;;2.90;;
68144;SDS011;55400;51.824;-0.196;2023-03-04T12:12:06;9.10;;;2.30;;
68144;SDS011;55400;51.824;-0.196;2023-03-04T12:16:09;7.00;;;2.30;;
68144;SDS011;55400;51.824;-0.196;2023-03-04T12:20:13;8.80;;;2.30;;
68144;SDS011;55400;51.824;-0.196;2023-03-04T12:24:13;9.40;;;2.70;;
68144;SDS011;55400;51.824;-0.196;2023-03-04T12:28:06;9.40;;;2.70;;
68144;SDS011;55400;51.824;-0.196;2023-03-04T12:32:02;7.30;;;2.40;;
68144;SDS011;55400;51.824;-0.196;2023-03-04T12:36:06;5.60;;;2.20;;
68144;SDS011;55400;51.824;-0.196;2023-03-04T12:40:08;7.20;;;2.40;;
68144;SDS011;55400;51.824;-0.196;2023-03-04T12:44:01;7.20;;;2.40;;
68144;SDS011;55400;51.824;-0.196;2023-03-04T12:48:04;8.30;;;2.80;;
68144;SDS011;55400;51.824;-0.196;2023-03-04T12:52:02;8.30;;;2.80;;
68144;SDS011;55400;51.824;-0.196;2023-03-04T12:56:00;7.00;;;2.70;;
68144;SDS011;55400;51.824;-0.196;2023-03-04T13:00:05;7.60;;;2.60;;
68144;SDS011;55400;51.824;-0.196;2023-03-04T13:04:03;6.00;;;2.80;;
68144;SDS011;55400;51.824;-0.196;2023-03-04T13:08:06;8.00;;;2.50;;
68144;SDS011;55400;51.824;-0.196;2023-03-04T13:12:11;6.80;;;2.80;;
68144;SDS011;55400;51.824;-0.196;2023-03-04T13:16:01;6.80;;;2.80;;
68144;SDS011;55400;51.824;-0.196;2023-03-04T13:20:17;7.60;;;2.30;;
68144;SDS011;55400;51.824;-0.196;2023-03-04T13:24:11;7.60;;;2.30;;
68144;SDS011;55400;51.824;-0.196;2023-03-04T13:28:14;6.10;;;2.40;;
68144;SDS011;55400;51.824;-0.196;2023-03-04T13:32:01;6.10;;;2.40;;
68144;SDS011;55400;51.824;-0.196;2023-03-04T13:36:01;5.50;;;2.50;;
68144;SDS011;55400;51.824;-0.196;2023-03-04T13:43:59;6.30;;;2.50;;
68144;SDS011;55400;51.824;-0.196;2023-03-04T13:56:02;6.30;;;2.30;;
68144;SDS011;55400;51.824;-0.196;2023-03-04T13:59:58;6.30;;;2.30;;
68144;SDS011;55400;51.824;-0.196;2023-03-04T14:04:00;12.90;;;3.40;;
68144;SDS011;55400;51.824;-0.196;2023-03-04T14:08:16;6.20;;;2.70;;
68144;SDS011;55400;51.824;-0.196;2023-03-04T14:12:00;6.20;;;2.70;;
68144;SDS011;55400;51.824;-0.196;2023-03-04T14:15:59;7.30;;;3.00;;
68144;SDS011;55400;51.824;-0.196;2023-03-04T14:19:59;8.90;;;4.20;;
68144;SDS011;55400;51.824;-0.196;2023-03-04T14:24:01;14.60;;;5.50;;
68144;SDS011;55400;51.824;-0.196;2023-03-04T14:28:04;9.10;;;3.20;;
68144;SDS011;55400;51.824;-0.196;2023-03-04T14:31:58;9.10;;;3.20;;
68144;SDS011;55400;51.824;-0.196;2023-03-04T14:36:01;4.10;;;2.90;;
68144;SDS011;55400;51.824;-0.196;2023-03-04T14:39:59;4.10;;;2.90;;
68144;SDS011;55400;51.824;-0.196;2023-03-04T14:44:02;10.10;;;3.00;;
68144;SDS011;55400;51.824;-0.196;2023-03-04T14:48:03;5.10;;;2.60;;
68144;SDS011;55400;51.824;-0.196;2023-03-04T14:51:58;5.10;;;2.60;;
68144;SDS011;55400;51.824;-0.196;2023-03-04T14:55:59;5.20;;;2.70;;
68144;SDS011;55400;51.824;-0.196;2023-03-04T15:00:16;8.60;;;2.70;;
68144;SDS011;55400;51.824;-0.196;2023-03-04T15:04:01;6.40;;;2.90;;
68144;SDS011;55400;51.824;-0.196;2023-03-04T15:08:00;6.40;;;2.90;;
68144;SDS011;55400;51.824;-0.196;2023-03-04T15:12:01;5.40;;;2.40;;
68144;SDS011;55400;51.824;-0.196;2023-03-04T15:16:00;5.40;;;2.40;;
68144;SDS011;55400;51.824;-0.196;2023-03-04T15:20:01;4.30;;;2.50;;
68144;SDS011;55400;51.824;-0.196;2023-03-04T15:23:59;4.30;;;2.50;;
68144;SDS011;55400;51.824;-0.196;2023-03-04T15:27:58;6.80;;;2.50;;
68144;SDS011;55400;51.824;-0.196;2023-03-04T15:31:58;5.30;;;2.50;;
68144;SDS011;55400;51.824;-0.196;2023-03-04T15:36:01;4.50;;;2.90;;
68144;SDS011;55400;51.824;-0.196;2023-03-04T15:39:58;4.50;;;2.90;;
68144;SDS011;55400;51.824;-0.196;2023-03-04T15:43:58;9.70;;;3.20;;
68144;SDS011;55400;51.824;-0.196;2023-03-04T15:51:59;8.10;;;3.30;;
68144;SDS011;55400;51.824;-0.196;2023-03-04T15:59:59;8.10;;;3.80;;
68144;SDS011;55400;51.824;-0.196;2023-03-04T16:03:58;7.00;;;3.90;;
68144;SDS011;55400;51.824;-0.196;2023-03-04T16:07:58;6.90;;;4.40;;
68144;SDS011;55400;51.824;-0.196;2023-03-04T16:11:58;7.80;;;4.70;;
68144;SDS011;55400;51.824;-0.196;2023-03-04T16:15:59;8.60;;;4.30;;
68144;SDS011;55400;51.824;-0.196;2023-03-04T16:19:58;8.60;;;4.60;;
68144;SDS011;55400;51.824;-0.196;2023-03-04T16:31:59;7.30;;;3.80;;
68144;SDS011;55400;51.824;-0.196;2023-03-04T16:35:59;6.90;;;4.20;;
68144;SDS011;55400;51.824;-0.196;2023-03-04T16:39:59;7.10;;;3.70;;
68144;SDS011;55400;51.824;-0.196;2023-03-04T16:43:59;11.00;;;5.90;;
68144;SDS011;55400;51.824;-0.196;2023-03-04T16:47:59;7.80;;;3.80;;
68144;SDS011;55400;51.824;-0.196;2023-03-04T16:51:59;7.10;;;4.80;;
68144;SDS011;55400;51.824;-0.196;2023-03-04T16:56:03;12.90;;;5.50;;
68144;SDS011;55400;51.824;-0.196;2023-03-04T16:59:59;7.60;;;4.00;;
68144;SDS011;55400;51.824;-0.196;2023-03-04T17:03:59;7.40;;;4.00;;
68144;SDS011;55400;51.824;-0.196;2023-03-04T17:07:59;5.30;;;3.30;;
68144;SDS011;55400;51.824;-0.196;2023-03-04T17:11:59;5.40;;;3.10;;
68144;SDS011;55400;51.824;-0.196;2023-03-04T17:16:00;8.50;;;5.60;;
68144;SDS011;55400;51.824;-0.196;2023-03-04T17:19:59;8.00;;;3.50;;
68144;SDS011;55400;51.824;-0.196;2023-03-04T17:23:59;8.00;;;4.00;;
68144;SDS011;55400;51.824;-0.196;2023-03-04T17:27:59;8.30;;;3.80;;
68144;SDS011;55400;51.824;-0.196;2023-03-04T17:31:59;7.60;;;3.40;;
68144;SDS011;55400;51.824;-0.196;2023-03-04T17:35:59;4.20;;;2.90;;
68144;SDS011;55400;51.824;-0.196;2023-03-04T17:39:59;7.40;;;3.10;;
68144;SDS011;55400;51.824;-0.196;2023-03-04T17:47:59;8.30;;;3.30;;
68144;SDS011;55400;51.824;-0.196;2023-03-04T17:51:59;5.70;;;3.00;;
68144;SDS011;55400;51.824;-0.196;2023-03-04T17:56:02;9.20;;;3.80;;
68144;SDS011;55400;51.824;-0.196;2023-03-04T17:59:59;6.30;;;3.00;;
68144;SDS011;55400;51.824;-0.196;2023-03-04T18:03:59;9.20;;;3.40;;
68144;SDS011;55400;51.824;-0.196;2023-03-04T18:07:59;7.70;;;3.40;;
68144;SDS011;55400;51.824;-0.196;2023-03-04T18:11:59;7.30;;;3.70;;
68144;SDS011;55400;51.824;-0.196;2023-03-04T18:19:59;8.80;;;3.60;;
68144;SDS011;55400;51.824;-0.196;2023-03-04T18:23:59;8.90;;;3.60;;
68144;SDS011;55400;51.824;-0.196;2023-03-04T18:27:59;5.50;;;3.30;;
68144;SDS011;55400;51.824;-0.196;2023-03-04T18:31:59;8.00;;;3.90;;
68144;SDS011;55400;51.824;-0.196;2023-03-04T18:36:00;14.20;;;4.60;;
68144;SDS011;55400;51.824;-0.196;2023-03-04T18:39:59;6.30;;;3.50;;
68144;SDS011;55400;51.824;-0.196;2023-03-04T18:43:59;9.70;;;4.00;;
68144;SDS011;55400;51.824;-0.196;2023-03-04T18:47:59;9.10;;;3.70;;
68144;SDS011;55400;51.824;-0.196;2023-03-04T18:51:59;8.30;;;4.00;;
68144;SDS011;55400;51.824;-0.196;2023-03-04T18:56:02;7.60;;;3.60;;
68144;SDS011;55400;51.824;-0.196;2023-03-04T19:00:02;8.70;;;3.40;;
68144;SDS011;55400;51.824;-0.196;2023-03-04T19:03:59;8.30;;;3.60;;
68144;SDS011;55400;51.824;-0.196;2023-03-04T19:07:59;6.30;;;3.50;;
68144;SDS011;55400;51.824;-0.196;2023-03-04T19:11:59;9.60;;;3.50;;
68144;SDS011;55400;51.824;-0.196;2023-03-04T19:15:59;8.80;;;3.60;;
68144;SDS011;55400;51.824;-0.196;2023-03-04T19:19:59;8.80;;;3.90;;
68144;SDS011;55400;51.824;-0.196;2023-03-04T19:27:59;10.50;;;4.00;;
68144;SDS011;55400;51.824;-0.196;2023-03-04T19:31:59;12.10;;;4.10;;
68144;SDS011;55400;51.824;-0.196;2023-03-04T19:36:00;8.70;;;3.80;;
68144;SDS011;55400;51.824;-0.196;2023-03-04T19:39:59;7.70;;;3.90;;
68144;SDS011;55400;51.824;-0.196;2023-03-04T19:43:59;13.80;;;3.90;;
68144;SDS011;55400;51.824;-0.196;2023-03-04T19:47:59;8.80;;;3.70;;
68144;SDS011;55400;51.824;-0.196;2023-03-04T19:52:00;9.70;;;4.50;;
68144;SDS011;55400;51.824;-0.196;2023-03-04T19:55:59;11.80;;;4.40;;
68144;SDS011;55400;51.824;-0.196;2023-03-04T19:59:59;14.00;;;4.40;;
68144;SDS011;55400;51.824;-0.196;2023-03-04T20:04:01;9.90;;;4.00;;
68144;SDS011;55400;51.824;-0.196;2023-03-04T20:07:59;8.70;;;3.90;;
68144;SDS011;55400;51.824;-0.196;2023-03-04T20:11:59;9.10;;;4.10;;
68144;SDS011;55400;51.824;-0.196;2023-03-04T20:15:59;8.90;;;4.10;;
68144;SDS011;55400;51.824;-0.196;2023-03-04T20:24:00;10.00;;;4.30;;
68144;SDS011;55400;51.824;-0.196;2023-03-04T20:27:59;10.80;;;4.20;;
68144;SDS011;55400;51.824;-0.196;2023-03-04T20:31:59;9.50;;;3.90;;
68144;SDS011;55400;51.824;-0.196;2023-03-04T20:35:59;8.90;;;4.00;;
68144;SDS011;55400;51.824;-0.196;2023-03-04T20:39:59;9.20;;;4.40;;
68144;SDS011;55400;51.824;-0.196;2023-03-04T20:43:59;9.30;;;4.50;;
68144;SDS011;55400;51.824;-0.196;2023-03-04T20:47:59;8.70;;;4.20;;
68144;SDS011;55400;51.824;-0.196;2023-03-04T20:52:00;9.60;;;4.50;;
68144;SDS011;55400;51.824;-0.196;2023-03-04T20:56:01;10.40;;;4.70;;
68144;SDS011;55400;51.824;-0.196;2023-03-04T20:59:59;10.90;;;4.50;;
68144;SDS011;55400;51.824;-0.196;2023-03-04T21:04:00;9.90;;;4.50;;
68144;SDS011;55400;51.824;-0.196;2023-03-04T21:07:59;8.50;;;4.40;;
68144;SDS011;55400;51.824;-0.196;2023-03-04T21:15:59;10.20;;;4.40;;
68144;SDS011;55400;51.824;-0.196;2023-03-04T21:19:59;11.80;;;4.20;;
68144;SDS011;55400;51.824;-0.196;2023-03-04T21:23:59;10.70;;;3.70;;
68144;SDS011;55400;51.824;-0.196;2023-03-04T21:27:59;9.10;;;4.30;;
68144;SDS011;55400;51.824;-0.196;2023-03-04T21:32:02;11.00;;;4.20;;
68144;SDS011;55400;51.824;-0.196;2023-03-04T21:35:59;21.90;;;5.00;;
68144;SDS011;55400;51.824;-0.196;2023-03-04T21:39:59;12.70;;;4.00;;
68144;SDS011;55400;51.824;-0.196;2023-03-04T21:43:59;10.90;;;4.10;;
68144;SDS011;55400;51.824;-0.196;2023-03-04T21:51:59;13.50;;;4.80;;
68144;SDS011;55400;51.824;-0.196;2023-03-04T21:56:00;9.30;;;4.50;;
68144;SDS011;55400;51.824;-0.196;2023-03-04T21:59:59;10.50;;;4.60;;
68144;SDS011;55400;51.824;-0.196;2023-03-04T22:08:00;8.90;;;4.50;;
68144;SDS011;55400;51.824;-0.196;2023-03-04T22:12:00;10.40;;;4.60;;
68144;SDS011;55400;51.824;-0.196;2023-03-04T22:16:00;8.20;;;4.50;;
68144;SDS011;55400;51.824;-0.196;2023-03-04T22:19:59;12.60;;;4.70;;
68144;SDS011;55400;51.824;-0.196;2023-03-04T22:23:59;9.90;;;5.00;;
68144;SDS011;55400;51.824;-0.196;2023-03-04T22:28:00;11.20;;;4.80;;
68144;SDS011;55400;51.824;-0.196;2023-03-04T22:36:04;9.90;;;4.60;;
68144;SDS011;55400;51.824;-0.196;2023-03-04T22:48:00;11.90;;;4.80;;
68144;SDS011;55400;51.824;-0.196;2023-03-04T22:51:59;12.20;;;4.70;;
68144;SDS011;55400;51.824;-0.196;2023-03-04T22:56:00;10.10;;;4.80;;
68144;SDS011;55400;51.824;-0.196;2023-03-04T22:59:59;11.20;;;4.70;;
68144;SDS011;55400;51.824;-0.196;2023-03-04T23:04:00;11.90;;;5.00;;
68144;SDS011;55400;51.824;-0.196;2023-03-04T23:08:00;11.10;;;4.20;;
68144;SDS011;55400;51.824;-0.196;2023-03-04T23:16:00;11.40;;;4.70;;
68144;SDS011;55400;51.824;-0.196;2023-03-04T23:20:00;6.70;;;4.30;;
68144;SDS011;55400;51.824;-0.196;2023-03-04T23:24:00;9.50;;;4.40;;
68144;SDS011;55400;51.824;-0.196;2023-03-04T23:28:00;10.40;;;4.60;;
68144;SDS011;55400;51.824;-0.196;2023-03-04T23:36:00;7.40;;;4.70;;
68144;SDS011;55400;51.824;-0.196;2023-03-04T23:40:00;12.40;;;4.80;;
68144;SDS011;55400;51.824;-0.196;2023-03-04T23:44:00;8.80;;;4.60;;
68144;SDS011;55400;51.824;-0.196;2023-03-04T23:48:00;10.70;;;5.10;;
68144;SDS011;55400;51.824;-0.196;2023-03-04T23:52:00;14.00;;;5.00;;
68144;SDS011;55400;51.824;-0.196;2023-03-04T23:56:00;14.50;;;6.30;;
